SAWH Informações do Aeroporto

Informações da Pista
Pista 7 Comprimento 9186 ft Largura 148 ft
Elevação 85 ft Limite 591 ft Heading 86
Pista 25 Comprimento 9186 ft Largura 148 ft
Elevação 74 ft Limite 525 ft Heading 266
Frequências do Aeroporto
Tipo RDO Nome RDO Frequência 122.1 MHZ
Tipo TWR Nome TWR/APP Frequência 118.1 MHZ
Navaids do Aeroporto
Tipo VOR Nome Ushuaia Frequência 113700 KHZ
Informações meteorológicas do aeroporto e NOTAM
ADDS - METARS form results

(1151 UTC 27 May 2022)
Data provider http://aviationweather.gov/metar/data/
 
METAR text: SAWH 271105Z 23015KT 2800 +SN OVC010 01/00 Q1004
Conditions at: SAWH (USHUAIA (ARG-NAV, AR) observed 1105 UTC 27 May 2022
Temperature: 1.0°C (34°F)
Dewpoint: 0.0°C (32°F) [RH = 93%]
Pressure (altimeter): 29.65 inches Hg (1004.0 mb)
Winds: from the SW (230 degrees) at 17 MPH (15 knots; 7.7 m/s)
Visibility: 1.74 miles (2.80 km)
Ceiling: 1000 feet AGL
Clouds: overcast cloud deck at 1000 feet AGL
Weather: +SN  (heavy snow)

METAR text: SAWH 271100Z 23012KT 5000 RASN SCT008 OVC018 01/00 Q1004
Conditions at: SAWH (USHUAIA (ARG-NAV, AR) observed 1100 UTC 27 May 2022
Temperature: 1.0°C (34°F)
Dewpoint: 0.0°C (32°F) [RH = 93%]
Pressure (altimeter): 29.65 inches Hg (1004.0 mb)
Winds: from the SW (230 degrees) at 14 MPH (12 knots; 6.2 m/s)
Visibility: 3 miles ( 5 km)
Ceiling: 1800 feet AGL
Clouds: scattered clouds at 800 feet AGL
overcast cloud deck at 1800 feet AGL
Weather: RA SN  (moderate rain, moderate snow)

Forecast for: SAWH (USHUAIA (ARG-NAV, AR)
Text: TAF SAWH 271100Z 2712/2812 23025G35KT 4000 RASN BKN006 OVC010 TX04/2719Z TNM03/2710Z
Forecast period: 1200 to 1300 UTC 27 May 2022
Forecast type: FROM: standard forecast or significant change
Winds: from the SW (230 degrees) at 29 MPH (25 knots; 12.9 m/s)
gusting to 40 MPH (35 knots; 18.0 m/s)
Visibility: 2.49 miles (4.01 km)
Ceiling: 600 feet AGL
Clouds: broken clouds at 600 feet AGL
overcast cloud deck at 1000 feet AGL
Weather: RA SN  (moderate rain, moderate snow)
Text: BECMG 2713/2715 19020G40KT 1000 SNRA BKN002 OVC025
Forecast period: 1300 UTC 27 May 2022 to 1200 UTC 28 May 2022
Forecast type: BECOMING: Conditions expected to become as follows by 1500 UTC 27 May 2022
Winds: from the S (190 degrees) at 23 MPH (20 knots; 10.3 m/s)
gusting to 46 MPH (40 knots; 20.6 m/s)
Visibility: 0.62 miles (1.00 km)
Ceiling: 200 feet AGL
Clouds: broken clouds at 200 feet AGL
overcast cloud deck at 2500 feet AGL
Weather: SN RA  (moderate snow, moderate rain)